createdAt,value
2023-05-13T00:02:08.419Z,7.18
2023-05-13T00:05:10.299Z,4.72
2023-05-13T00:08:12.318Z,5.28
2023-05-13T00:11:14.214Z,4.07
2023-05-13T00:14:16.101Z,4.30
2023-05-13T00:17:17.950Z,4.78
2023-05-13T00:20:21.195Z,4.20
2023-05-13T00:23:23.220Z,4.95
2023-05-13T00:26:25.182Z,6.40
2023-05-13T00:29:27.329Z,3.70
2023-05-13T00:32:29.684Z,5.80
2023-05-13T00:35:31.561Z,3.97
2023-05-13T00:38:33.511Z,4.57
2023-05-13T00:41:35.410Z,4.22
2023-05-13T00:44:37.232Z,4.97
2023-05-13T00:47:40.414Z,4.97
2023-05-13T00:50:44.848Z,5.22
2023-05-13T00:53:47.375Z,4.00
2023-05-13T00:56:49.259Z,4.97
2023-05-13T00:59:51.531Z,4.88
2023-05-13T01:03:29.806Z,4.53
2023-05-13T01:06:45.092Z,4.50
2023-05-13T01:09:55.239Z,4.97
2023-05-13T01:13:01.567Z,4.82
2023-05-13T01:16:12.132Z,5.43
2023-05-13T01:19:33.323Z,5.07
2023-05-13T01:22:35.212Z,5.13
2023-05-13T01:25:38.882Z,3.15
2023-05-13T01:28:40.782Z,4.80
2023-05-13T01:31:44.097Z,5.22
2023-05-13T01:34:47.102Z,4.07
2023-05-13T01:37:50.703Z,4.18
2023-05-13T01:43:55.426Z,5.32
2023-05-13T01:46:57.475Z,3.90
2023-05-13T01:49:59.806Z,5.10
2023-05-13T01:56:05.494Z,4.25
2023-05-13T01:59:11.274Z,4.63
2023-05-13T02:02:13.308Z,4.28
2023-05-13T02:05:15.505Z,3.63
2023-05-13T02:08:17.553Z,4.38
2023-05-13T02:11:19.456Z,4.25
2023-05-13T02:14:21.319Z,5.13
2023-05-13T02:17:23.282Z,3.88
2023-05-13T02:20:26.445Z,4.90
2023-05-13T02:23:28.350Z,3.72
2023-05-13T02:26:30.776Z,4.00
2023-05-13T02:29:32.848Z,3.72
2023-05-13T02:32:34.676Z,3.73
2023-05-13T02:35:36.516Z,3.80
2023-05-13T02:38:38.463Z,4.88
2023-05-13T02:41:45.728Z,3.55
2023-05-13T02:44:48.786Z,3.67
2023-05-13T02:47:52.216Z,3.63
2023-05-13T02:50:54.387Z,3.72
2023-05-13T02:53:56.562Z,4.10
2023-05-13T02:56:59.225Z,4.68
2023-05-13T03:00:01.478Z,4.82
2023-05-13T03:03:03.581Z,4.20
2023-05-13T03:06:06.652Z,4.82
2023-05-13T03:09:08.600Z,4.30
2023-05-13T03:12:10.563Z,3.90
2023-05-13T03:15:12.558Z,3.17
2023-05-13T03:18:14.445Z,3.87
2023-05-13T03:21:16.492Z,3.70
2023-05-13T03:24:18.484Z,3.45
2023-05-13T03:27:21.044Z,2.63
2023-05-13T03:30:23.336Z,3.60
2023-05-13T03:33:33.582Z,2.95
2023-05-13T03:36:35.853Z,3.23
2023-05-13T03:39:37.890Z,2.53
2023-05-13T03:42:40.260Z,2.60
2023-05-13T03:45:47.660Z,2.22
2023-05-13T03:48:55.752Z,3.38
2023-05-13T03:51:58.191Z,3.00
2023-05-13T03:55:00.481Z,3.08
2023-05-13T03:58:12.239Z,3.05
2023-05-13T04:01:14.170Z,2.65
2023-05-13T04:04:16.044Z,2.35
2023-05-13T04:07:17.908Z,2.47
2023-05-13T04:10:20.001Z,2.45
2023-05-13T04:13:22.003Z,2.35
2023-05-13T04:16:25.717Z,2.45
2023-05-13T04:19:27.573Z,2.42
2023-05-13T04:22:29.418Z,2.22
2023-05-13T04:25:31.728Z,3.10
2023-05-13T04:28:34.817Z,2.95
2023-05-13T04:31:37.568Z,3.05
2023-05-13T04:34:39.543Z,3.08
2023-05-13T04:37:41.558Z,3.20
2023-05-13T04:40:48.082Z,2.55
2023-05-13T04:43:55.521Z,2.30
2023-05-13T04:46:57.467Z,2.97
2023-05-13T04:49:59.422Z,2.90
2023-05-13T04:53:01.973Z,2.72
2023-05-13T04:56:04.500Z,2.60
2023-05-13T04:59:06.409Z,3.17
2023-05-13T05:02:08.465Z,3.40
2023-05-13T05:05:10.560Z,3.05
2023-05-13T05:08:12.604Z,1.73
2023-05-13T05:11:15.007Z,2.08
2023-05-13T05:14:17.252Z,2.85
2023-05-13T05:17:19.570Z,2.33
2023-05-13T05:20:22.029Z,2.90
2023-05-13T05:23:24.820Z,2.95
2023-05-13T05:26:26.856Z,3.90
2023-05-13T05:29:28.812Z,2.70
2023-05-13T05:32:30.702Z,2.13
2023-05-13T05:35:33.778Z,2.50
2023-05-13T05:38:35.764Z,1.85
2023-05-13T05:41:38.274Z,2.25
2023-05-13T05:44:40.202Z,3.53
2023-05-13T05:47:43.218Z,2.13
2023-05-13T05:50:46.356Z,2.10
2023-05-13T05:53:52.688Z,3.30
2023-05-13T05:56:54.785Z,2.85
2023-05-13T05:59:56.652Z,3.42
2023-05-13T06:02:58.732Z,3.13
2023-05-13T06:06:01.168Z,1.60
2023-05-13T06:09:04.861Z,1.80
2023-05-13T06:12:07.196Z,1.73
2023-05-13T06:15:12.430Z,4.05
2023-05-13T06:18:14.885Z,1.92
2023-05-13T06:21:16.809Z,1.70
2023-05-13T06:24:18.705Z,2.13
2023-05-13T06:27:21.819Z,1.42
2023-05-13T06:30:23.804Z,1.65
2023-05-13T06:33:26.359Z,2.15
2023-05-13T06:36:28.341Z,2.85
2023-05-13T06:39:30.366Z,2.33
2023-05-13T06:42:32.383Z,2.10
2023-05-13T06:45:36.037Z,2.28
2023-05-13T06:51:40.253Z,2.23
2023-05-13T06:54:42.089Z,1.88
2023-05-13T06:57:46.889Z,1.27
2023-05-13T07:00:48.958Z,2.35
2023-05-13T07:03:50.822Z,1.85
2023-05-13T07:06:54.765Z,1.33
2023-05-13T07:09:56.703Z,1.65
2023-05-13T07:12:58.551Z,1.40
2023-05-13T07:16:02.408Z,1.33
2023-05-13T07:19:04.462Z,1.83
2023-05-13T07:25:08.553Z,1.75
2023-05-13T07:31:12.463Z,1.08
2023-05-13T07:37:16.072Z,1.63
2023-05-13T07:40:18.670Z,2.40
2023-05-13T07:43:24.013Z,1.63
2023-05-13T07:46:26.001Z,1.42
2023-05-13T07:49:27.938Z,1.55
2023-05-13T07:52:29.813Z,2.72
2023-05-13T07:55:31.776Z,1.17
2023-05-13T07:58:33.970Z,1.33
2023-05-13T08:01:35.977Z,1.20
2023-05-13T08:07:39.626Z,1.60
2023-05-13T08:10:41.447Z,2.22
2023-05-13T08:13:43.365Z,2.60
2023-05-13T08:19:47.284Z,1.25
2023-05-13T08:25:51.329Z,1.48
2023-05-13T08:28:54.747Z,2.17
2023-05-13T08:31:57.298Z,1.70
2023-05-13T08:38:01.418Z,1.20
2023-05-13T08:44:13.747Z,1.80
2023-05-13T08:47:52.588Z,1.65
2023-05-13T08:50:54.652Z,1.63
2023-05-13T08:56:58.655Z,0.88
2023-05-13T09:00:00.760Z,1.55
2023-05-13T09:06:04.964Z,1.58
2023-05-13T09:09:07.030Z,2.22
2023-05-13T09:15:13.270Z,1.25
2023-05-13T09:18:18.529Z,2.10
2023-05-13T09:21:29.634Z,1.70
2023-05-13T09:24:31.444Z,1.20
2023-05-13T09:27:38.702Z,5.68
2023-05-13T09:30:46.653Z,2.58
2023-05-13T09:33:54.983Z,2.67
2023-05-13T09:37:02.816Z,1.67
2023-05-13T09:40:05.534Z,1.48
2023-05-13T09:43:08.421Z,1.40
2023-05-13T09:46:10.717Z,1.35
2023-05-13T09:49:12.685Z,2.03
2023-05-13T09:55:18.825Z,1.20
2023-05-13T10:01:27.172Z,1.08
2023-05-13T10:04:29.311Z,1.35
2023-05-13T10:07:34.145Z,1.45
2023-05-13T10:10:36.924Z,1.63
2023-05-13T10:13:39.568Z,1.40
2023-05-13T10:16:41.783Z,2.13
2023-05-13T10:19:44.287Z,1.38
2023-05-13T10:22:46.837Z,0.95
2023-05-13T10:25:49.372Z,2.53
2023-05-13T10:28:51.286Z,3.33
2023-05-13T10:35:16.883Z,6.93
2023-05-13T10:38:56.208Z,3.38
2023-05-13T10:42:03.805Z,3.17
2023-05-13T10:45:06.060Z,3.42
2023-05-13T10:48:11.208Z,1.63
2023-05-13T10:51:17.971Z,1.40
2023-05-13T10:54:21.686Z,1.42
2023-05-13T10:57:36.024Z,2.20
2023-05-13T11:00:39.807Z,1.30
2023-05-13T11:03:42.742Z,1.92
2023-05-13T11:06:46.554Z,1.63
2023-05-13T11:09:51.661Z,0.95
2023-05-13T11:13:15.360Z,2.65
2023-05-13T11:16:17.302Z,1.48
2023-05-13T11:22:42.038Z,2.13
2023-05-13T11:25:45.687Z,1.92
2023-05-13T11:29:04.616Z,2.10
2023-05-13T11:32:07.182Z,2.70
2023-05-13T11:35:09.859Z,1.77
2023-05-13T11:38:23.428Z,1.27
2023-05-13T11:41:25.774Z,2.03
2023-05-13T11:44:28.403Z,1.77
2023-05-13T11:47:30.269Z,1.88
2023-05-13T11:50:32.611Z,1.95
2023-05-13T11:53:34.571Z,2.05
2023-05-13T11:59:47.586Z,2.45
2023-05-13T12:02:50.461Z,2.10
2023-05-13T12:06:01.374Z,2.67
2023-05-13T12:09:07.633Z,1.85
2023-05-13T12:12:10.173Z,1.90
2023-05-13T12:15:14.556Z,1.73
2023-05-13T12:18:16.524Z,1.65
2023-05-13T12:21:21.361Z,2.28
2023-05-13T12:24:23.308Z,1.90
2023-05-13T12:30:34.320Z,1.88
2023-05-13T12:33:44.670Z,2.97
2023-05-13T12:36:46.518Z,2.35
2023-05-13T12:39:48.396Z,2.00
2023-05-13T12:42:50.254Z,1.90
2023-05-13T12:45:54.831Z,1.60
2023-05-13T12:48:59.845Z,2.67
2023-05-13T12:52:04.929Z,1.98
2023-05-13T12:55:07.496Z,2.50
2023-05-13T12:58:11.352Z,1.95
2023-05-13T13:01:13.300Z,2.13
2023-05-13T13:04:16.976Z,2.38
2023-05-13T13:07:19.115Z,4.22
2023-05-13T13:10:21.154Z,2.53
2023-05-13T13:16:24.769Z,3.60
2023-05-13T13:19:26.824Z,1.90
2023-05-13T13:22:28.879Z,2.03
2023-05-13T13:25:30.930Z,1.92
2023-05-13T13:31:34.569Z,2.92
2023-05-13T13:34:37.367Z,3.10
2023-05-13T13:37:39.382Z,3.22
2023-05-13T13:43:43.208Z,2.70
2023-05-13T13:46:45.189Z,2.38
2023-05-13T13:52:48.996Z,2.15
2023-05-13T13:55:50.910Z,3.17
2023-05-13T13:58:52.719Z,3.00
2023-05-13T14:01:54.649Z,2.00
2023-05-13T14:04:56.466Z,1.83
2023-05-13T14:07:58.823Z,3.50
2023-05-13T14:11:00.716Z,5.68
2023-05-13T14:14:02.700Z,3.60
2023-05-13T14:17:04.669Z,3.25
2023-05-13T14:20:07.193Z,2.40
2023-05-13T14:23:09.092Z,4.90
2023-05-13T14:26:13.316Z,5.28
2023-05-13T14:29:16.007Z,4.50
2023-05-13T14:32:18.002Z,3.63
2023-05-13T14:35:19.904Z,3.10
2023-05-13T14:38:21.739Z,2.97
2023-05-13T14:41:24.288Z,3.63
2023-05-13T14:44:26.562Z,2.17
2023-05-13T14:47:28.502Z,2.05
2023-05-13T14:50:30.442Z,2.60
2023-05-13T14:53:32.396Z,2.78
2023-05-13T14:56:34.232Z,2.58
2023-05-13T14:59:36.300Z,3.08
2023-05-13T15:05:43.872Z,4.38
2023-05-13T15:08:46.075Z,3.38
2023-05-13T15:11:48.031Z,2.65
2023-05-13T15:14:53.891Z,3.50
2023-05-13T15:17:55.962Z,3.35
2023-05-13T15:23:59.652Z,3.10
2023-05-13T15:27:01.608Z,4.25
2023-05-13T15:30:03.574Z,4.90
2023-05-13T15:33:05.784Z,5.80
2023-05-13T15:36:11.544Z,4.18
2023-05-13T15:39:13.648Z,3.17
2023-05-13T15:42:15.882Z,2.58
2023-05-13T15:48:19.712Z,3.00
2023-05-13T15:51:21.816Z,1.77
2023-05-13T15:54:23.715Z,2.08
2023-05-13T15:57:25.742Z,2.38
2023-05-13T16:00:27.562Z,3.05
2023-05-13T16:03:29.378Z,3.00
2023-05-13T16:06:31.931Z,3.55
2023-05-13T16:09:33.806Z,2.42
2023-05-13T16:12:36.120Z,2.92
2023-05-13T16:15:38.002Z,2.40
2023-05-13T16:18:40.127Z,2.17
2023-05-13T16:24:44.308Z,2.47
2023-05-13T16:27:46.247Z,2.05
2023-05-13T16:30:48.129Z,2.15
2023-05-13T16:33:51.469Z,2.13
2023-05-13T16:36:53.274Z,1.60
2023-05-13T16:39:55.474Z,2.95
2023-05-13T16:46:03.801Z,2.30
2023-05-13T16:49:06.118Z,1.95
2023-05-13T16:55:10.084Z,2.05
2023-05-13T16:58:11.985Z,1.88
2023-05-13T17:01:13.992Z,3.72
2023-05-13T17:04:16.319Z,4.53
2023-05-13T17:10:20.315Z,3.47
2023-05-13T17:13:22.304Z,3.70
2023-05-13T17:16:24.675Z,2.75
2023-05-13T17:22:28.422Z,3.40
2023-05-13T17:25:30.309Z,3.72
2023-05-13T17:28:33.978Z,3.42
2023-05-13T17:31:35.870Z,2.78
2023-05-13T17:34:37.730Z,3.60
2023-05-13T17:37:39.693Z,4.63
2023-05-13T17:40:41.617Z,3.85
2023-05-13T17:43:43.503Z,3.88
2023-05-13T17:46:45.429Z,4.90
2023-05-13T17:49:47.326Z,3.97
2023-05-13T17:52:49.299Z,7.28
2023-05-13T17:55:51.248Z,28.98
2023-05-13T17:58:53.081Z,54.20
2023-05-13T18:01:55.016Z,54.88
2023-05-13T18:04:56.887Z,39.42
2023-05-13T18:07:59.493Z,30.58
2023-05-13T18:11:01.393Z,29.48
2023-05-13T18:14:03.534Z,30.30
2023-05-13T18:17:05.431Z,19.80
2023-05-13T18:20:07.956Z,14.15
2023-05-13T18:26:11.607Z,7.90
2023-05-13T18:29:13.482Z,7.40
2023-05-13T18:32:15.382Z,8.07
2023-05-13T18:35:17.459Z,8.43
2023-05-13T18:38:19.337Z,8.23
2023-05-13T18:41:21.559Z,6.75
2023-05-13T18:44:23.574Z,7.60
2023-05-13T18:47:26.692Z,6.53
2023-05-13T18:50:29.601Z,5.93
2023-05-13T18:53:31.613Z,6.88
2023-05-13T18:56:34.030Z,6.75
2023-05-13T18:59:36.160Z,7.72
2023-05-13T19:02:38.287Z,5.22
2023-05-13T19:05:40.298Z,5.72
2023-05-13T19:08:42.185Z,5.28
2023-05-13T19:11:44.592Z,4.70
2023-05-13T19:14:46.482Z,4.90
2023-05-13T19:17:48.436Z,6.72
2023-05-13T19:20:50.442Z,7.30
2023-05-13T19:23:52.291Z,5.82
2023-05-13T19:26:54.184Z,6.97
2023-05-13T19:29:56.014Z,6.97
2023-05-13T19:32:57.952Z,5.07
2023-05-13T19:35:59.934Z,5.70
2023-05-13T19:39:01.731Z,5.57
2023-05-13T19:42:04.598Z,5.53
2023-05-13T19:45:08.176Z,3.33
2023-05-13T19:48:10.336Z,3.60
2023-05-13T19:51:12.237Z,2.78
2023-05-13T19:54:14.148Z,3.00
2023-05-13T19:57:15.966Z,3.17
2023-05-13T20:00:18.433Z,4.60
2023-05-13T20:03:21.100Z,3.08
2023-05-13T20:06:23.032Z,2.92
2023-05-13T20:09:26.857Z,4.53
2023-05-13T20:12:28.694Z,2.42
2023-05-13T20:15:31.487Z,2.70
2023-05-13T20:18:33.890Z,2.65
2023-05-13T20:21:35.800Z,2.20
2023-05-13T20:24:37.714Z,3.03
2023-05-13T20:27:39.558Z,2.95
2023-05-13T20:30:45.159Z,3.00
2023-05-13T20:33:47.034Z,5.38
2023-05-13T20:36:48.913Z,3.53
2023-05-13T20:39:50.835Z,2.80
2023-05-13T20:42:52.729Z,3.92
2023-05-13T20:45:54.650Z,2.73
2023-05-13T20:48:56.561Z,3.10
2023-05-13T20:52:03.703Z,3.57
2023-05-13T20:55:06.270Z,3.65
2023-05-13T20:58:08.156Z,3.35
2023-05-13T21:01:10.039Z,2.83
2023-05-13T21:04:12.055Z,3.10
2023-05-13T21:07:15.322Z,4.82
2023-05-13T21:10:17.555Z,2.60
2023-05-13T21:13:19.421Z,3.45
2023-05-13T21:16:21.302Z,2.73
2023-05-13T21:19:24.656Z,4.28
2023-05-13T21:22:26.480Z,3.05
2023-05-13T21:25:28.330Z,3.00
2023-05-13T21:28:30.254Z,3.20
2023-05-13T21:31:32.155Z,2.97
2023-05-13T21:34:33.963Z,3.83
2023-05-13T21:37:35.764Z,3.93
2023-05-13T21:40:38.475Z,2.80
2023-05-13T21:46:42.075Z,3.42
2023-05-13T21:49:44.152Z,3.60
2023-05-13T21:52:46.049Z,2.97
2023-05-13T21:55:48.508Z,3.40
2023-05-13T22:01:52.530Z,3.45
2023-05-13T22:04:54.385Z,4.03
2023-05-13T22:07:56.321Z,3.03
2023-05-13T22:10:58.247Z,3.07
2023-05-13T22:14:00.534Z,2.80
2023-05-13T22:20:09.709Z,3.35
2023-05-13T22:23:11.714Z,2.65
2023-05-13T22:26:13.559Z,4.05
2023-05-13T22:29:15.501Z,3.00
2023-05-13T22:32:17.370Z,2.80
2023-05-13T22:35:19.210Z,2.60
2023-05-13T22:38:21.033Z,3.53
2023-05-13T22:41:23.898Z,3.07
2023-05-13T22:44:25.846Z,3.53
2023-05-13T22:47:27.811Z,2.87
2023-05-13T22:50:29.668Z,4.20
2023-05-13T22:53:31.521Z,3.13
2023-05-13T22:56:33.374Z,3.53
2023-05-13T22:59:35.618Z,4.80
2023-05-13T23:02:37.538Z,3.10
2023-05-13T23:05:39.386Z,3.97
2023-05-13T23:08:41.722Z,3.97
2023-05-13T23:11:43.601Z,4.03
2023-05-13T23:14:45.836Z,3.43
2023-05-13T23:17:47.711Z,2.85
2023-05-13T23:20:51.283Z,3.30
2023-05-13T23:23:53.179Z,3.78
2023-05-13T23:26:54.992Z,3.37
2023-05-13T23:29:57.054Z,3.13
2023-05-13T23:32:58.968Z,3.25
2023-05-13T23:36:00.900Z,3.23
2023-05-13T23:39:02.795Z,3.30
2023-05-13T23:42:04.823Z,3.03
2023-05-13T23:45:07.180Z,3.13
2023-05-13T23:48:09.166Z,2.85
2023-05-13T23:51:11.094Z,3.47
2023-05-13T23:54:12.968Z,3.53
2023-05-13T23:57:14.849Z,3.47
